createdAt,value
2018-02-03T00:03:22.814Z,22.30
2018-02-03T00:08:24.220Z,27.90
2018-02-03T00:13:25.580Z,16.67
2018-02-03T00:18:26.900Z,14.53
2018-02-03T00:23:28.219Z,23.50
2018-02-03T00:28:29.518Z,25.30
2018-02-03T00:33:30.864Z,25.40
2018-02-03T00:38:32.207Z,29.13
2018-02-03T00:43:34.299Z,26.37
2018-02-03T00:48:35.630Z,23.20
2018-02-03T00:53:36.942Z,19.93
2018-02-03T00:58:38.268Z,23.97
2018-02-03T01:03:39.583Z,21.73
2018-02-03T01:08:40.918Z,20.43
2018-02-03T01:13:42.249Z,24.00
2018-02-03T01:18:44.334Z,19.20
2018-02-03T01:23:45.687Z,17.83
2018-02-03T01:28:47.015Z,16.13
2018-02-03T01:33:48.384Z,12.43
2018-02-03T01:38:49.703Z,16.83
2018-02-03T01:43:51.735Z,19.93
2018-02-03T01:48:53.071Z,12.90
2018-02-03T01:53:54.386Z,12.80
2018-02-03T01:58:55.691Z,11.50
2018-02-03T02:03:57.809Z,25.10
2018-02-03T02:08:59.549Z,17.73
2018-02-03T02:14:00.933Z,24.27
2018-02-03T02:19:02.473Z,18.40
2018-02-03T02:24:04.559Z,18.00
2018-02-03T02:29:05.912Z,19.03
2018-02-03T02:34:07.218Z,21.27
2018-02-03T02:39:08.543Z,28.50
2018-02-03T02:44:10.590Z,14.60
2018-02-03T02:49:11.916Z,21.13
2018-02-03T02:54:13.243Z,13.83
2018-02-03T02:59:14.554Z,8.63
2018-02-03T03:04:15.881Z,14.77
2018-02-03T03:09:17.210Z,10.57
2018-02-03T03:14:19.298Z,25.03
2018-02-03T03:19:20.619Z,21.67
2018-02-03T03:24:21.938Z,10.93
2018-02-03T03:29:23.267Z,16.50
2018-02-03T03:34:24.610Z,14.37
2018-02-03T03:39:25.946Z,17.07
2018-02-03T03:44:27.279Z,15.53
2018-02-03T03:49:28.606Z,16.10
2018-02-03T03:54:29.941Z,8.87
2018-02-03T03:59:31.270Z,9.67
2018-02-03T04:04:32.649Z,14.17
2018-02-03T04:09:34.013Z,24.47
2018-02-03T04:14:35.337Z,9.53
2018-02-03T04:19:36.693Z,12.23
2018-02-03T04:24:38.818Z,17.90
2018-02-03T04:29:40.158Z,16.33
2018-02-03T04:34:41.498Z,11.57
2018-02-03T04:39:42.834Z,10.23
2018-02-03T04:44:44.207Z,8.23
2018-02-03T04:49:45.565Z,10.93
2018-02-03T04:54:46.920Z,11.00
2018-02-03T04:59:48.982Z,6.77
2018-02-03T05:04:50.319Z,12.20
2018-02-03T05:09:51.645Z,11.63
2018-02-03T05:14:52.951Z,12.03
2018-02-03T05:19:54.275Z,9.97
2018-02-03T05:24:56.310Z,14.80
2018-02-03T05:29:57.610Z,14.53
2018-02-03T05:34:58.978Z,13.43
2018-02-03T05:40:00.307Z,12.10
2018-02-03T05:45:04.578Z,12.40
2018-02-03T05:50:05.934Z,16.73
2018-02-03T05:55:07.239Z,18.27
2018-02-03T06:00:08.602Z,9.83
2018-02-03T06:05:09.934Z,10.27
2018-02-03T06:10:11.270Z,9.60
2018-02-03T06:15:12.566Z,15.33
2018-02-03T06:20:13.963Z,13.37
2018-02-03T06:25:15.364Z,11.00
2018-02-03T06:30:16.706Z,10.10
2018-02-03T06:35:18.055Z,10.90
2018-02-03T06:40:19.514Z,14.53
2018-02-03T06:45:21.583Z,11.80
2018-02-03T06:50:22.915Z,16.80
2018-02-03T06:55:24.228Z,14.57
2018-02-03T07:00:26.259Z,10.93
2018-02-03T07:05:27.636Z,9.80
2018-02-03T07:10:29.039Z,13.50
2018-02-03T07:15:31.287Z,16.47
2018-02-03T07:20:33.654Z,11.87
2018-02-03T07:25:35.122Z,10.07
2018-02-03T07:30:36.512Z,12.40
2018-02-03T07:35:39.071Z,17.60
2018-02-03T07:40:40.406Z,7.50
2018-02-03T07:45:43.038Z,8.00
2018-02-03T07:50:44.434Z,11.60
2018-02-03T07:55:45.838Z,9.00
2018-02-03T08:00:47.147Z,11.13
2018-02-03T08:05:49.152Z,5.80
2018-02-03T08:10:51.162Z,10.70
2018-02-03T08:15:52.904Z,11.43
2018-02-03T08:20:54.310Z,10.93
2018-02-03T08:25:56.562Z,11.67
2018-02-03T08:30:58.021Z,8.53
2018-02-03T08:35:59.356Z,9.77
2018-02-03T08:41:00.894Z,10.17
2018-02-03T08:46:02.408Z,10.00
2018-02-03T08:51:03.789Z,8.10
2018-02-03T08:56:06.598Z,14.37
2018-02-03T09:01:07.955Z,7.20
2018-02-03T09:06:09.354Z,9.83
2018-02-03T09:11:10.711Z,11.63
2018-02-03T09:16:12.048Z,7.43
2018-02-03T09:21:14.266Z,5.90
2018-02-03T09:26:15.636Z,9.63
2018-02-03T09:31:17.784Z,11.80
2018-02-03T09:36:19.142Z,5.80
2018-02-03T09:41:21.231Z,10.13
2018-02-03T09:46:22.550Z,11.77
2018-02-03T09:51:23.966Z,5.13
2018-02-03T09:56:25.329Z,12.03
2018-02-03T10:01:27.402Z,7.47
2018-02-03T10:06:28.728Z,12.03
2018-02-03T10:11:30.114Z,7.53
2018-02-03T10:16:31.470Z,6.60
2018-02-03T10:21:32.822Z,7.10
2018-02-03T10:26:34.210Z,9.10
2018-02-03T10:31:35.574Z,14.93
2018-02-03T10:36:37.012Z,11.20
2018-02-03T10:41:38.356Z,11.13
2018-02-03T10:46:39.670Z,8.10
2018-02-03T10:51:41.010Z,5.00
2018-02-03T10:56:42.404Z,5.10
2018-02-03T11:01:44.475Z,5.70
2018-02-03T11:06:45.887Z,7.67
2018-02-03T11:11:47.211Z,7.60
2018-02-03T11:16:49.366Z,6.90
2018-02-03T11:21:50.804Z,6.60
2018-02-03T11:26:52.914Z,5.77
2018-02-03T11:31:54.237Z,6.90
2018-02-03T11:36:55.647Z,8.30
2018-02-03T11:41:56.986Z,7.73
2018-02-03T11:46:58.462Z,8.30
2018-02-03T11:52:01.184Z,10.33
2018-02-03T11:57:03.251Z,10.90
2018-02-03T12:02:04.596Z,9.63
2018-02-03T12:07:06.651Z,9.80
2018-02-03T12:12:07.974Z,9.20
2018-02-03T12:17:09.352Z,5.80
2018-02-03T12:22:10.727Z,11.97
2018-02-03T12:27:12.056Z,9.93
2018-02-03T12:32:13.393Z,11.93
2018-02-03T12:37:14.789Z,6.90
2018-02-03T12:42:16.921Z,18.93
2018-02-03T12:47:18.250Z,8.93
2018-02-03T12:52:19.626Z,6.13
2018-02-03T12:57:20.971Z,10.17
2018-02-03T13:02:22.278Z,21.00
2018-02-03T13:07:23.602Z,13.40
2018-02-03T13:12:24.986Z,10.87
2018-02-03T13:17:26.346Z,9.00
2018-02-03T13:22:27.673Z,10.07
2018-02-03T13:27:28.983Z,7.57
2018-02-03T13:32:30.374Z,21.37
2018-02-03T13:37:31.723Z,12.40
2018-02-03T13:42:33.066Z,11.73
2018-02-03T13:47:34.436Z,25.93
2018-02-03T13:52:35.783Z,21.00
2018-02-03T13:57:37.095Z,20.27
2018-02-03T14:02:38.410Z,11.20
2018-02-03T14:07:39.745Z,12.03
2018-02-03T14:12:41.087Z,9.90
2018-02-03T14:17:42.424Z,8.13
2018-02-03T14:22:43.754Z,11.93
2018-02-03T14:27:45.121Z,11.60
2018-02-03T14:32:47.174Z,12.63
2018-02-03T14:37:48.502Z,10.43
2018-02-03T14:42:50.023Z,12.50
2018-02-03T14:47:51.398Z,13.07
2018-02-03T14:52:53.467Z,16.20
2018-02-03T14:57:54.832Z,22.83
2018-02-03T15:02:56.131Z,16.57
2018-02-03T15:07:57.536Z,8.50
2018-02-03T15:12:59.164Z,16.30
2018-02-03T15:18:00.620Z,14.53
2018-02-03T15:23:01.998Z,14.73
2018-02-03T15:28:03.396Z,14.13
2018-02-03T15:33:04.732Z,15.80
2018-02-03T15:38:06.846Z,14.50
2018-02-03T15:43:08.927Z,15.27
2018-02-03T15:48:10.270Z,22.20
2018-02-03T15:53:11.619Z,18.93
2018-02-03T15:58:12.947Z,23.47
2018-02-03T16:03:14.285Z,22.40
2018-02-03T16:08:15.757Z,22.07
2018-02-03T16:13:17.102Z,20.07
2018-02-03T16:18:18.452Z,18.87
2018-02-03T16:23:19.774Z,24.23
2018-02-03T16:28:21.104Z,21.93
2018-02-03T16:33:22.417Z,17.83
2018-02-03T16:38:23.840Z,23.63
2018-02-03T16:43:25.930Z,55.70
2018-02-03T16:48:28.004Z,24.50
2018-02-03T16:53:29.319Z,19.63
2018-02-03T16:58:30.718Z,15.20
2018-02-03T17:03:32.785Z,19.50
2018-02-03T17:08:34.096Z,17.20
2018-02-03T17:13:35.435Z,16.83
2018-02-03T17:18:36.755Z,27.47
2018-02-03T17:23:38.139Z,16.87
2018-02-03T17:28:39.525Z,15.17
2018-02-03T17:33:40.909Z,15.00
2018-02-03T17:38:53.035Z,15.70
2018-02-03T17:43:54.339Z,15.67
2018-02-03T17:48:55.688Z,19.70
2018-02-03T17:53:57.973Z,14.87
2018-02-03T17:59:00.327Z,13.37
2018-02-03T18:04:01.655Z,16.20
2018-02-03T18:09:03.023Z,14.00
2018-02-03T18:14:04.348Z,15.40
2018-02-03T18:19:05.660Z,14.93
2018-02-03T18:24:07.016Z,13.27
2018-02-03T18:29:08.354Z,17.73
2018-02-03T18:34:10.093Z,19.17
2018-02-03T18:39:12.004Z,13.47
2018-02-03T18:44:13.399Z,13.67
2018-02-03T18:49:14.752Z,17.70
2018-02-03T18:54:16.214Z,12.33
2018-02-03T18:59:18.274Z,17.30
2018-02-03T19:04:19.624Z,13.93
2018-02-03T19:09:21.031Z,14.60
2018-02-03T19:14:22.378Z,14.73
2018-02-03T19:19:23.706Z,22.83
2018-02-03T19:24:25.763Z,15.40
2018-02-03T19:29:27.113Z,13.33
2018-02-03T19:34:28.559Z,12.00
2018-02-03T19:39:29.887Z,15.20
2018-02-03T19:44:31.987Z,11.80
2018-02-03T19:49:33.305Z,15.70
2018-02-03T19:54:34.618Z,16.20
2018-02-03T19:59:39.042Z,14.63
2018-02-03T20:04:40.427Z,17.63
2018-02-03T20:09:42.539Z,10.97
2018-02-03T20:14:43.846Z,8.50
2018-02-03T20:19:45.175Z,11.37
2018-02-03T20:24:46.514Z,8.77
2018-02-03T20:29:47.887Z,12.43
2018-02-03T20:34:50.016Z,15.13
2018-02-03T20:39:51.343Z,10.07
2018-02-03T20:44:52.672Z,9.17
2018-02-03T20:49:54.770Z,11.50
2018-02-03T20:54:56.842Z,11.40
2018-02-03T20:59:58.177Z,13.43
2018-02-03T21:05:00.231Z,9.93
2018-02-03T21:10:01.578Z,10.80
2018-02-03T21:15:03.680Z,12.67
2018-02-03T21:20:05.050Z,9.10
2018-02-03T21:25:06.391Z,9.43
2018-02-03T21:30:07.816Z,14.17
2018-02-03T21:35:09.226Z,15.27
2018-02-03T21:40:10.647Z,14.13
2018-02-03T21:45:11.970Z,15.13
2018-02-03T21:50:13.312Z,17.83
2018-02-03T21:55:15.392Z,20.50
2018-02-03T22:00:16.759Z,21.07
2018-02-03T22:05:18.283Z,23.70
2018-02-03T22:10:19.622Z,23.23
2018-02-03T22:15:21.042Z,30.80
2018-02-03T22:20:22.435Z,23.27
2018-02-03T22:25:23.831Z,26.47
2018-02-03T22:30:25.163Z,32.20
2018-02-03T22:35:26.537Z,25.40
2018-02-03T22:40:28.838Z,32.07
2018-02-03T22:45:30.220Z,33.63
2018-02-03T22:50:31.554Z,26.37
2018-02-03T22:55:32.924Z,29.67
2018-02-03T23:00:35.706Z,27.90
2018-02-03T23:05:35.707Z,26.00
2018-02-03T23:10:38.011Z,16.80
2018-02-03T23:15:40.146Z,18.80
2018-02-03T23:20:41.638Z,16.77
2018-02-03T23:25:42.949Z,16.77
2018-02-03T23:30:44.546Z,11.67
2018-02-03T23:35:45.953Z,12.03
2018-02-03T23:40:47.314Z,12.97
2018-02-03T23:45:48.646Z,11.30
2018-02-03T23:50:50.022Z,12.13
2018-02-03T23:55:51.334Z,16.20
